Anchorage, AK

2:38 AM AKDT on March 30, 2015 (GMT -0800)
Merrill | | Change Station
CLOSE
Current Station
Airport
Location: Anchorage Merrill,
Elevation: 135 ft
Nearby Weather Stations

Elev 135 ft 61.22 °N, 149.85 °W | Updated 45 minutes ago

Overcast
Overcast
35 °F
Feels Like 35 °F
N
0
Wind Variable Wind from North

Today
High -- | Low -- °F
--% Chance of Precip.
Yesterday
High -- | Low -- °F
Precip. -- in
7:29 AM 8:40 PM
Waxing Gibbous, 79% visible
Pressure 29.56 in
Visibility 10.0 miles
Clouds Overcast 10000 ft
Dew Point 26 °F
Humidity 70%
Rainfall 0.00 in
Snow Depth Not available.
UV 0 out of 12
Pollen Not available.
Air Quality Not available.
Flu Activity Not available.
METAR PAMR 300953Z 00000KT 10SM OVC100 02/M03 A2955 RMK AO2 SLP008 T00171033

More Conditions Fewer Conditions

Pressure 29.56 in
Visibility 10.0 miles
Clouds Overcast 10000 ft
Dew Point 26 °F
Humidity 70%
Rainfall 0.00 in
Snow Depth Not available.
UV 0 out of 12
Pollen Not available.
Air Quality Not available.
Flu Activity Not available.
METAR PAMR 300953Z 00000KT 10SM OVC100 02/M03 A2955 RMK AO2 SLP008 T00171033

More Conditions Fewer Conditions

10-Day Weather Forecast

Almanac

Astronomy

Mar. 30, 2015 Rise Set
Actual Time
Civil Twilight
Nautical Twilight
Astronomical Twilight
Moon
Length of Visible Light
Length of Day
Tomorrow will be .
, % of the Moon is Illuminated

Today's Extremes

State Highs State Lows

Community

WunderPhotos

Upload Photos

1,809,455 photos uploaded!

WunderBlogs® & News

Nearby

Air Quality

  Air Quality AQ Index Pollutant
Not available.

Snow Depth

Station Depth Elevation

Earthquake Activity

City Distance Mag. Time & Date
Minimum magnitude displayed is 2.5.

Coastal Water Temperatures

Place Temperature

Stations

Nearby Weather Stations

Station Location Temp. Windchill Dew Point Humidity Wind Precip. Elev Updated Type